Latest Coastal Weather Observations for Cape Nelson

IDS60701

Issued at 2:21 pm CST Wednesday 29 July 2015 (issued every 10 minutes, with the page automatically refreshed every 10 minutes)

About coastal observations | Map of coastal stations | Coastal observations for SA | Marine services | Other Formats
Station Details ID: 090184 Name: CAPE NELSON LIGHTHOUSE Lat: -38.43 Lon: 141.54 Height: 45.4 m
Data from the previous 72 hours. | See also: Recent months at Cape Nelson
Date/Time
CST
Temp

°C
Wind Pressure Rain
since 9am
mm
Weather Cloud Vis
km
Sea
Height
m
Swell
Dir
 
Speed
knots
Gust
knots
hPa Trend Height
m
Period
s
Dir
29/02:00pm 11.7 NNW 13 21 1026.0 - 0.0 - - - - - - -
29/01:30pm 11.7 NNW 11 19 1026.5 - 0.0 - - - - - - -
29/01:00pm 11.4 NNW 11 18 1027.0 - 0.0 - - - - - - -
29/12:30pm 11.7 NNW 11 17 1028.0 - 0.0 - - - - - - -
29/12:00pm 11.4 N 10 16 1028.7 - 0.0 - - - - - - -
29/11:30am 11.4 N 9 16 1029.5 - 0.0 - - - - - - -
29/11:00am 10.8 NNW 10 16 1029.9 - 0.0 - - - - - - -
29/10:30am 10.8 NNW 13 19 1030.1 - 0.0 - - - - - - -
29/10:00am 10.5 NNW 14 22 1030.4 - 0.0 - - - - - - -
29/09:52am 10.5 NNW 15 25 1030.5 - 0.0 - - - - - - -
29/09:30am 10.6 NNW 17 25 1030.5 - 0.0 - - - - - - -
29/09:00am 9.1 NNW 12 18 1030.5 - 0.0 - - - - - - -
29/08:30am 8.6 N 12 17 1030.4 - 1.8 - - - - - - -
29/08:00am 8.6 N 11 17 1030.7 - 1.8 - - - - - - -
29/07:30am 8.2 N 10 15 1030.9 - 1.8 - - - - - - -
29/07:00am 8.2 N 10 15 1030.8 - 1.8 - - - - - - -
29/06:30am 8.5 NNW 11 14 1031.0 - 1.8 - - - - - - -
29/06:00am 8.2 NNW 9 13 1030.8 - 1.8 - - - - - - -
29/05:30am 7.9 NNW 9 13 1030.7 - 1.8 - - - - - - -
29/05:00am 7.8 N 11 15 1030.4 - 1.8 - - - - - - -
29/04:30am 7.8 N 10 14 1030.3 - 1.8 - - - - - - -
29/04:00am 7.9 N 9 12 1030.6 - 1.8 - - - - - - -
29/03:30am 8.1 NNW 9 13 1031.1 - 1.8 - - - - - - -
29/03:00am 8.1 NNW 9 14 1031.2 - 1.8 - - - - - - -
29/02:30am 8.2 NNW 9 15 1031.2 - 1.8 - - - - - - -
29/02:00am 8.5 NNW 11 15 1031.5 - 1.8 - - - - - - -
29/01:30am 8.1 NNW 10 14 1031.4 - 1.8 - - - - - - -
29/01:00am 7.9 NNW 9 12 1031.7 - 1.8 - - - - - - -
29/12:30am 7.9 NNW 9 12 1031.9 - 1.8 - - - - - - -
29/12:00am 8.4 NNW 10 13 1032.2 - 1.8 - - - - - - -
 
Date/Time
CST
Temp

°C
Wind Pressure Rain
since 9am
mm
Weather Cloud Vis
km
Sea
Height
m
Swell
Dir
 
Speed
knots
Gust
knots
hPa Trend Height
m
Period
s
Dir
28/11:30pm 8.5 NNW 8 12 1032.6 - 1.8 - - - - - - -
28/11:00pm 8.9 NNW 10 14 1032.6 - 1.8 - - - - - - -
28/10:30pm 8.7 NNW 10 13 1032.4 - 1.8 - - - - - - -
28/10:00pm 8.7 NNW 8 11 1032.9 - 1.8 - - - - - - -
28/09:30pm 9.3 NNW 7 10 1033.1 - 1.8 - - - - - - -
28/09:00pm 9.6 NW 9 13 1033.2 - 1.8 - - - - - - -
28/08:30pm 9.7 NNW 7 11 1033.3 - 1.8 Recent precip. - - - - - -
28/08:00pm 9.5 NNW 6 8 1033.4 - 1.6 - - - - - - -
28/07:30pm 10.7 NW 8 12 1033.5 - 1.6 - - - - - - -
28/07:00pm 11.1 WNW 9 12 1033.6 - 1.6 - - - - - - -
28/06:30pm 11.3 W 10 14 1033.4 - 1.6 - - - - - - -
28/06:00pm 11.3 W 11 17 1033.3 - 1.6 - - - - - - -
28/05:30pm 11.4 WNW 9 12 1033.2 - 1.6 - - - - - - -
28/05:00pm 11.8 W 10 17 1033.0 - 1.6 - - - - - - -
28/04:30pm 11.5 W 8 12 1033.1 - 1.6 - - - - - - -
28/04:00pm 11.6 W 9 12 1033.1 - 1.6 - - - - - - -
28/03:30pm 11.8 W 7 10 1033.2 - 1.6 - - - - - - -
28/03:00pm 11.5 W 11 21 1033.2 - 1.6 - - - - - - -
28/02:30pm 11.9 W 10 14 1033.1 - 1.6 - - - - - - -
28/02:00pm 12.1 WNW 9 12 1033.0 - 1.6 - - - - - - -
28/01:30pm 10.6 W 15 21 1033.3 - 1.6 - - - - - - -
28/01:00pm 10.9 W 12 17 1033.6 - 1.6 - - - - - - -
28/12:30pm 11.4 W 10 14 1034.0 - 1.6 - - - - - - -
28/12:00pm 10.7 W 8 13 1034.4 - 1.6 - - - - - - -
28/11:30am 11.9 NW 8 14 1034.8 - 1.4 Recent precip. - - - - - -
28/11:00am 10.6 NW 9 15 1035.2 - 1.4 - - - - - - -
28/10:30am 10.6 NW 11 13 1035.4 - 0.8 - - - - - - -
28/10:00am 10.6 NNW 9 12 1035.1 - 0.2 - - - - - - -
28/09:30am 10.5 NNW 11 15 1034.9 - 0.2 - - - - - - -
28/09:00am 9.9 NNW 9 14 1034.8 - 0.2 - - - - - - -
28/08:30am 9.8 NNW 8 11 1034.7 - 1.2 - - - - - - -
28/08:00am 9.1 NNW 9 12 1034.6 - 1.2 - - - - - - -
28/07:30am 8.8 NW 10 12 1034.5 - 1.2 - - - - - - -
28/07:00am 9.3 NW 10 17 1034.2 - 1.2 - - - - - - -
28/06:30am 9.4 NW 8 13 1033.9 - 1.0 - - - - - - -
28/06:00am 9.9 NW 9 13 1033.4 - 0.4 - - - - - - -
28/05:30am 10.0 NW 9 13 1033.1 - 0.4 - - - - - - -
28/05:00am 10.7 WNW 10 15 1032.8 - 0.4 - - - - - - -
28/04:30am 11.0 W 12 19 1032.6 - 0.4 - - - - - - -
28/04:00am 11.2 W 12 19 1032.6 - 0.4 - - - - - - -
28/03:30am 11.2 W 14 19 1032.6 - 0.4 - - - - - - -
28/03:00am 11.1 W 11 20 1032.8 - 0.4 - - - - - - -
28/02:30am 11.2 W 12 17 1032.9 - 0.4 - - - - - - -
28/02:00am 11.4 W 12 19 1032.9 - 0.4 - - - - - - -
28/01:30am 11.4 W 12 21 1032.7 - 0.4 - - - - - - -
28/01:00am 11.4 W 10 16 1032.4 - 0.4 - - - - - - -
28/12:30am 11.5 WNW 13 22 1032.3 - 0.4 - - - - - - -
28/12:00am 11.4 W 15 20 1032.2 - 0.4 - - - - - - -
 
Date/Time
CST
Temp

°C
Wind Pressure Rain
since 9am
mm
Weather Cloud Vis
km
Sea
Height
m
Swell
Dir
 
Speed
knots
Gust
knots
hPa Trend Height
m
Period
s
Dir
27/11:30pm 11.3 WNW 13 19 1032.2 - 0.4 - - - - - - -
27/11:00pm 11.5 W 13 19 1032.0 - 0.4 - - - - - - -
27/10:30pm 11.3 NW 12 19 1031.9 - 0.4 - - - - - - -
27/10:00pm 11.1 W 17 25 1032.2 - 0.4 - - - - - - -
27/09:30pm 11.3 W 15 21 1032.2 - 0.4 - - - - - - -
27/09:00pm 11.4 W 16 23 1031.9 - 0.4 - - - - - - -
27/08:30pm 11.4 W 17 22 1031.9 - 0.4 - - - - - - -
27/08:00pm 11.1 W 14 21 1031.9 - 0.4 - - - - - - -
27/07:30pm 11.2 W 15 22 1031.9 - 0.4 - - - - - - -
27/07:00pm 11.2 W 19 25 1031.8 - 0.4 - - - - - - -
27/06:30pm 11.1 W 18 25 1031.5 - 0.4 - - - - - - -
27/06:00pm 10.4 WNW 13 20 1031.4 - 0.4 - - - - - - -
27/05:30pm 11.2 W 19 26 1031.1 - 0.0 - - - - - - -
27/05:23pm 11.2 W 16 26 1031.1 - 0.0 - - - - - - -
27/05:00pm 11.6 W 17 22 1030.8 - 0.0 - - - - - - -
27/04:43pm 11.5 W 15 25 1030.8 - 0.0 - - - - - - -
27/04:30pm 11.3 W 17 25 1030.7 - 0.0 - - - - - - -
27/04:00pm 11.2 W 13 22 1030.5 - 0.0 - - - - - - -
27/03:30pm 11.3 W 13 21 1030.4 - 0.0 - - - - - - -
27/03:00pm 11.7 W 18 25 1030.2 - 0.0 - - - - - - -
27/02:30pm 11.5 W 19 23 1029.9 - 0.0 - - - - - - -
27/02:00pm 11.2 WNW 16 25 1029.8 - 0.0 - - - - - - -
27/01:30pm 11.5 W 17 25 1029.6 - 0.0 - - - - - - -
27/01:26pm 11.0 W 15 25 1029.6 - 0.0 - - - - - - -
27/01:00pm 11.7 W 18 25 1029.6 - 0.0 - - - - - - -
27/12:30pm 11.6 W 16 23 1029.5 - 0.0 - - - - - - -
27/12:00pm 11.4 W 15 22 1029.7 - 0.0 - - - - - - -
27/11:30am 11.5 WNW 15 23 1029.9 - 0.0 - - - - - - -
27/11:00am 11.9 WNW 15 27 1030.1 - 0.0 - - - - - - -
27/10:55am 11.4 WNW 15 27 1030.2 - 0.0 - - - - - - -
27/10:30am 11.1 N 10 17 1030.0 - 0.0 - - - - - - -
27/10:00am 11.2 WNW 14 22 1029.6 - 0.0 - - - - - - -
27/09:30am 10.9 NNW 12 20 1029.3 - 0.0 - - - - - - -
27/09:00am 11.0 WNW 15 26 1029.0 - 0.0 - - - - - - -
27/08:58am 10.7 WNW 16 26 1029.0 - 0.0 - - - - - - -
27/08:30am 9.8 NW 12 21 1028.6 - 1.2 - - - - - - -
27/08:00am 10.1 N 11 19 1028.2 - 1.2 - - - - - - -
27/07:30am 10.8 NW 12 22 1027.7 - 1.2 - - - - - - -
27/07:00am 10.3 NNW 13 22 1027.4 - 1.2 - - - - - - -
27/06:30am 9.9 NNW 11 18 1027.1 - 1.2 - - - - - - -
27/06:00am 10.0 NW 13 20 1026.8 - 1.2 - - - - - - -
27/05:41am 9.6 N 13 25 1026.7 - 1.2 - - - - - - -
27/05:30am 10.5 NW 13 21 1026.4 - 1.2 - - - - - - -
27/05:00am 9.9 NW 11 19 1026.2 - 1.2 - - - - - - -
27/04:30am 10.2 NNW 12 20 1025.9 - 1.2 - - - - - - -
27/04:04am 10.1 NNW 13 29 1025.8 - 1.2 - - - - - - -
27/04:00am 10.2 N 11 16 1025.8 - 1.2 - - - - - - -
27/03:30am 10.1 NW 13 21 1025.4 - 1.2 - - - - - - -
27/03:00am 9.9 NNW 11 18 1025.3 - 1.2 - - - - - - -
27/02:30am 9.8 NNW 13 25 1025.2 - 1.2 - - - - - - -
27/02:00am 9.7 NNE 12 23 1025.0 - 1.2 - - - - - - -
27/01:30am 10.0 NNW 12 21 1024.7 - 1.2 - - - - - - -
27/01:00am 9.2 N 12 20 1024.8 - 1.2 - - - - - - -
27/12:30am 8.9 WNW 15 23 1024.3 - 1.0 - - - - - - -
27/12:00am 8.9 NNE 10 16 1024.1 - 1.0 - - - - - - -
 
Date/Time
CST
Temp

°C
Wind Pressure Rain
since 9am
mm
Weather Cloud Vis
km
Sea
Height
m
Swell
Dir
 
Speed
knots
Gust
knots
hPa Trend Height
m
Period
s
Dir
26/11:30pm 8.1 ESE 13 26 1024.2 - 1.0 Rain - - - - - -
26/11:13pm 9.7 NW 15 26 1023.8 - 0.8 - - - - - - -
26/11:09pm 10.0 N 13 25 1023.9 - 0.8 - - - - - - -
26/11:00pm 9.6 NNE 10 18 1023.8 - 0.8 - - - - - - -
26/10:30pm 9.5 ESE 11 17 1023.5 - 0.8 - - - - - - -
26/10:00pm 9.2 NNE 11 17 1023.3 - 0.8 - - - - - - -
26/09:30pm 9.2 E 12 27 1023.1 - 0.8 - - - - - - -
26/09:00pm 8.5 ENE 14 26 1022.7 - 0.8 - - - - - - -
26/08:58pm 9.0 E 14 26 1022.3 - 0.8 - - - - - - -
26/08:57pm 8.9 ESE 13 26 1022.2 - 0.8 - - - - - - -
26/08:30pm 9.2 E 10 19 1022.3 - 0.8 Recent precip. - - - - - -
26/08:00pm 8.3 S 20 35 1021.9 - 0.8 - - - - - - -
26/07:46pm 9.8 ESE 13 28 1021.2 - 0.8 - - - - - - -
26/07:30pm 9.6 SE 13 23 1021.1 - 0.6 - - - - - - -
26/07:05pm 8.9 SW 15 28 1020.8 - 0.6 - - - - - - -
26/07:00pm 9.1 W 17 25 1021.0 - 0.6 - - - - - - -
26/06:30pm 9.3 NW 17 35 1020.3 - 0.6 - - - - - - -
26/06:28pm 9.4 NNW 15 31 1020.1 - 0.6 - - - - - - -
26/06:24pm 9.8 NNW 13 28 1019.8 - 0.6 - - - - - - -
26/06:00pm 9.5 NNE 13 23 1019.5 - 0.6 - - - - - - -
26/05:30pm 9.4 W 19 31 1019.1 - 0.6 - - - - - - -
26/05:18pm 8.7 W 25 36 1019.1 - 0.6 - - - - - - -
26/05:13pm 8.3 W 23 36 1018.9 - 0.6 - - - - - - -
26/05:00pm 9.0 W 19 31 1018.8 - 0.6 - - - - - - -
26/04:48pm 9.1 NNW 18 39 1018.4 - 0.6 - - - - - - -
26/04:46pm 9.8 N 15 34 1018.1 - 0.6 - - - - - - -
26/04:37pm 9.8 WNW 19 32 1017.6 - 0.6 - - - - - - -
26/04:36pm 9.8 WNW 20 32 1017.6 - 0.6 - - - - - - -
26/04:35pm 9.9 W 21 32 1017.8 - 0.6 - - - - - - -
26/04:30pm 9.9 W 23 32 1018.0 - 0.6 - - - - - - -
26/04:16pm 9.7 WNW 19 34 1017.7 - 0.6 - - - - - - -
26/04:00pm 9.6 NW 17 30 1017.4 - 0.6 - - - - - - -
26/03:58pm 9.5 NW 16 30 1017.5 - 0.6 - - - - - - -
26/03:52pm 9.0 WNW 19 30 1016.8 - 0.6 - - - - - - -
26/03:30pm 7.6 W 22 40 1017.5 - 0.6 - - - - - - -
26/03:23pm 9.4 W 21 38 1017.2 - 0.6 - - - - - - -
26/03:14pm 9.1 NNW 14 25 1017.1 - 0.6 - - - - - - -
26/03:06pm 9.9 NW 15 26 1016.7 - 0.6 - - - - - - -
26/03:00pm 9.7 WNW 20 30 1016.4 - 0.6 - - - - - - -
26/02:30pm 9.3 WNW 18 28 1016.1 - 0.6 - - - - - - -
26/02:08pm 10.1 WNW 19 31 1015.8 - 0.6 - - - - - - -
26/02:06pm 10.3 WNW 19 31 1015.5 - 0.6 - - - - - - -
26/02:00pm 10.1 W 25 39 1015.6 - 0.6 - - - - - - -
26/01:56pm 9.8 W 26 39 1015.5 - 0.6 - - - - - - -
26/01:54pm 9.6 W 24 39 1015.5 - 0.6 - - - - - - -

Other Formats:

Comma delimited format used in spreadsheet applications
http://www.bom.gov.au/fwo/IDS60701/IDS60701.94826.axf

JavaScript Object Notation format (JSON) in row-major order
http://www.bom.gov.au/fwo/IDS60701/IDS60701.94826.json